This is the latest recevied weather packets stored in our database for station/object OK1ALX-6. If no packets are shown the sender has not sent any weather packets the latest 10 day(s).
| Time | Temp. | Humidity | Pressure | Rain* | Wind** | Luminosity | Snow |
|---|---|---|---|---|---|---|---|
| 1777765203 | 11.11° C | 59% | 1023.9 hPa | 0 mm | - | 0 W/m² | - |
| 1777764603 | 11.11° C | 60% | 1024.4 hPa | 0 mm | - | 0 W/m² | - |
| 1777764003 | 11.67° C | 59% | 1024.3 hPa | 0 mm | - | 0 W/m² | - |
| 1777763403 | 12.22° C | 58% | 1024.2 hPa | 0 mm | - | 0 W/m² | - |
| 1777762803 | 12.22° C | 58% | 1024.2 hPa | 0 mm | - | 0 W/m² | - |
| 1777762203 | 12.78° C | 55% | 1024.2 hPa | 0 mm | - | 0 W/m² | - |
| 1777761603 | 12.78° C | 54% | 1024.3 hPa | 0 mm | - | 0 W/m² | - |
| 1777761003 | 12.22° C | 58% | 1024.3 hPa | 0 mm | - | 0 W/m² | - |
| 1777760403 | 12.22° C | 56% | 1024.1 hPa | 0 mm | - | 0 W/m² | - |
| 1777759803 | 12.22° C | 56% | 1024.2 hPa | 0 mm | - | 0 W/m² | - |
| 1777759211 | 12.22° C | 57% | 1024.1 hPa | 0 mm | - | 0 W/m² | - |
| 1777758003 | 13.33° C | 54% | 1023.9 hPa | 0 mm | - | 0 W/m² | - |
| 1777757403 | 13.33° C | 54% | 1024 hPa | 0 mm | - | 0 W/m² | - |
| 1777756803 | 13.89° C | 52% | 1024.1 hPa | 0 mm | - | 0 W/m² | - |
| 1777756203 | 13.33° C | 54% | 1024.1 hPa | 0 mm | - | 0 W/m² | - |
| 1777755003 | 14.44° C | 51% | 1024.2 hPa | 0 mm | - | 0 W/m² | - |
| 1777754403 | 13.89° C | 50% | 1024.2 hPa | 0 mm | - | 0 W/m² | - |
| 1777753803 | 12.22° C | 61% | 1024.5 hPa | 0 mm | - | 0 W/m² | - |
| 1777753203 | 12.22° C | 62% | 1024.5 hPa | 0 mm | - | 0 W/m² | - |
| 1777752011 | 13.33° C | 59% | 1024.1 hPa | 0 mm | - | 0 W/m² | - |
| 1777751403 | 15° C | 50% | 1024.1 hPa | 0 mm | - | 0 W/m² | - |
| 1777750803 | 16.11° C | 50% | 1023.7 hPa | 0 mm | - | 0 W/m² | - |
| 1777750203 | 15° C | 51% | 1024 hPa | 0 mm | - | 0 W/m² | - |
| 1777749603 | 15° C | 54% | 1024.1 hPa | 0 mm | - | 0 W/m² | - |
| 1777749003 | 15.56° C | 53% | 1024.1 hPa | 0 mm | - | 0 W/m² | - |
* Rain latest hour (hover to see other rain measurements)
** Current wind speed in m/s (hover to see current wind gust speed)